Time;durP1;ratioP1;P1;durP2;ratioP2;P2;SDS_P1;SDS_P2;PMS_P1;PMS_P2;Temp;Humidity;BMP_temperature;BMP_pressure;BME280_temperature;BME280_humidity;BME280_pressure;Samples;Min_cycle;Max_cycle;Signal;HPM_P1;HPM_P2
2021/11/26 00:02:15;;;;;;;5.27;4.73;;;;;;;18.56;49.52;99660.13;;;;-58
2021/11/26 00:05:15;;;;;;;5.09;4.59;;;;;;;18.55;49.60;99655.89;;;;-58
2021/11/26 00:08:15;;;;;;;5.63;4.76;;;;;;;18.53;49.72;99646.72;;;;-54
2021/11/26 00:11:15;;;;;;;6.01;4.95;;;;;;;18.52;49.49;99643.09;;;;-60
2021/11/26 00:14:19;;;;;;;5.33;4.81;;;;;;;18.50;49.52;99638.46;;;;-60
2021/11/26 00:17:19;;;;;;;6.23;4.88;;;;;;;18.48;49.47;99634.00;;;;-60
2021/11/26 00:20:15;;;;;;;5.29;4.75;;;;;;;18.48;49.53;99633.84;;;;-60
2021/11/26 00:23:15;;;;;;;5.18;4.68;;;;;;;18.46;49.50;99625.41;;;;-60
2021/11/26 00:26:15;;;;;;;6.18;4.88;;;;;;;18.44;49.52;99615.11;;;;-60
2021/11/26 00:29:15;;;;;;;5.11;4.61;;;;;;;18.43;49.58;99613.51;;;;-60
2021/11/26 00:32:15;;;;;;;5.27;4.75;;;;;;;18.42;49.50;99613.58;;;;-57
2021/11/26 00:35:15;;;;;;;5.81;4.87;;;;;;;18.41;49.53;99609.55;;;;-58
2021/11/26 00:38:15;;;;;;;5.40;4.80;;;;;;;18.39;49.51;99604.84;;;;-58
2021/11/26 00:41:15;;;;;;;5.04;4.56;;;;;;;18.39;49.66;99600.95;;;;-57
2021/11/26 00:44:15;;;;;;;5.12;4.62;;;;;;;18.38;49.67;99595.58;;;;-58
2021/11/26 00:47:15;;;;;;;5.25;4.75;;;;;;;18.37;49.62;99595.60;;;;-58
2021/11/26 00:50:15;;;;;;;6.11;4.71;;;;;;;18.35;49.57;99602.49;;;;-60
2021/11/26 00:53:15;;;;;;;5.20;4.70;;;;;;;18.34;49.63;99594.30;;;;-59
2021/11/26 00:56:15;;;;;;;5.14;4.64;;;;;;;18.33;49.83;99585.88;;;;-60
2021/11/26 00:59:15;;;;;;;4.98;4.48;;;;;;;18.31;49.64;99585.06;;;;-59
2021/11/26 01:02:15;;;;;;;4.89;4.39;;;;;;;18.31;49.60;99582.00;;;;-60
2021/11/26 01:05:15;;;;;;;5.01;4.51;;;;;;;18.30;49.73;99585.88;;;;-57
2021/11/26 01:08:15;;;;;;;5.37;4.65;;;;;;;18.28;49.79;99583.92;;;;-58
2021/11/26 01:11:15;;;;;;;4.93;4.44;;;;;;;18.28;49.61;99585.55;;;;-58
2021/11/26 01:14:15;;;;;;;5.51;5.01;;;;;;;18.26;49.79;99590.28;;;;-57
2021/11/26 01:17:15;;;;;;;5.29;4.79;;;;;;;18.26;49.74;99591.58;;;;-58
2021/11/26 01:20:15;;;;;;;5.15;4.63;;;;;;;18.24;49.71;99587.20;;;;-58
2021/11/26 01:23:15;;;;;;;5.20;4.70;;;;;;;18.23;49.74;99581.35;;;;-57
2021/11/26 01:26:15;;;;;;;5.34;4.84;;;;;;;18.23;49.79;99579.90;;;;-57
2021/11/26 01:33:15;;;;;;;5.57;4.50;;;;;;;18.21;49.79;99581.45;;;;-58
2021/11/26 01:36:15;;;;;;;5.25;4.74;;;;;;;18.21;49.63;99586.55;;;;-57
2021/11/26 01:39:15;;;;;;;5.82;4.94;;;;;;;18.20;49.78;99583.00;;;;-58
2021/11/26 01:42:15;;;;;;;5.31;4.81;;;;;;;18.21;49.70;99584.69;;;;-52
2021/11/26 01:45:15;;;;;;;5.53;5.03;;;;;;;18.21;49.78;99572.53;;;;-52
2021/11/26 01:48:15;;;;;;;5.19;4.69;;;;;;;18.18;49.71;99565.73;;;;-52
2021/11/26 01:51:15;;;;;;;5.38;4.88;;;;;;;18.18;49.75;99559.40;;;;-51
2021/11/26 01:54:15;;;;;;;5.97;4.61;;;;;;;18.17;49.78;99555.98;;;;-51
2021/11/26 01:57:15;;;;;;;5.45;4.95;;;;;;;18.16;49.78;99562.89;;;;-52
2021/11/26 02:00:15;;;;;;;5.21;4.71;;;;;;;18.15;49.75;99563.54;;;;-52
2021/11/26 02:03:15;;;;;;;5.19;4.69;;;;;;;18.15;49.78;99559.97;;;;-51
2021/11/26 02:06:15;;;;;;;5.36;4.85;;;;;;;18.13;49.77;99558.59;;;;-52
2021/11/26 02:09:15;;;;;;;5.44;4.94;;;;;;;18.13;49.82;99554.62;;;;-52
2021/11/26 02:12:15;;;;;;;5.19;4.69;;;;;;;18.12;49.79;99541.42;;;;-52
2021/11/26 02:15:15;;;;;;;5.18;4.66;;;;;;;18.10;49.82;99535.34;;;;-52
2021/11/26 02:18:15;;;;;;;5.16;4.66;;;;;;;18.09;49.85;99529.08;;;;-52
2021/11/26 02:21:15;;;;;;;5.65;5.15;;;;;;;18.10;49.82;99522.78;;;;-51
2021/11/26 02:24:15;;;;;;;4.96;4.46;;;;;;;18.09;49.75;99513.68;;;;-51
2021/11/26 02:27:15;;;;;;;5.03;4.53;;;;;;;18.08;49.80;99503.08;;;;-51
2021/11/26 02:30:18;;;;;;;5.24;4.65;;;;;;;18.08;49.82;99495.22;;;;-51
2021/11/26 02:33:15;;;;;;;5.35;4.85;;;;;;;18.07;49.76;99487.98;;;;-58
2021/11/26 02:36:15;;;;;;;5.11;4.61;;;;;;;18.05;49.92;99486.61;;;;-52
2021/11/26 02:39:15;;;;;;;5.24;4.68;;;;;;;18.05;49.86;99482.65;;;;-59
2021/11/26 02:42:15;;;;;;;4.86;4.45;;;;;;;18.04;49.85;99479.02;;;;-60
2021/11/26 02:45:15;;;;;;;5.01;4.53;;;;;;;18.03;49.80;99479.27;;;;-52
2021/11/26 02:48:15;;;;;;;4.99;4.49;;;;;;;18.03;49.84;99477.14;;;;-52
2021/11/26 02:51:15;;;;;;;5.49;4.99;;;;;;;18.02;49.86;99472.53;;;;-52
2021/11/26 02:54:17;;;;;;;5.43;4.93;;;;;;;18.02;49.87;99472.78;;;;-53
2021/11/26 02:57:15;;;;;;;5.03;4.52;;;;;;;18.01;49.78;99468.58;;;;-52
2021/11/26 03:00:15;;;;;;;4.57;4.17;;;;;;;18.01;49.83;99458.58;;;;-58
2021/11/26 03:03:15;;;;;;;6.08;4.54;;;;;;;18.00;49.88;99452.27;;;;-58
2021/11/26 03:06:15;;;;;;;5.05;4.55;;;;;;;17.98;49.88;99448.38;;;;-52
2021/11/26 03:09:15;;;;;;;5.05;4.55;;;;;;;17.98;49.89;99435.09;;;;-51
2021/11/26 03:12:15;;;;;;;5.00;4.50;;;;;;;17.97;49.86;99433.09;;;;-52
2021/11/26 03:15:15;;;;;;;5.00;4.50;;;;;;;17.96;49.86;99436.48;;;;-51
2021/11/26 03:18:17;;;;;;;5.16;4.66;;;;;;;17.95;49.86;99427.50;;;;-51
2021/11/26 03:21:15;;;;;;;5.33;4.83;;;;;;;17.95;49.88;99422.37;;;;-51
2021/11/26 03:24:15;;;;;;;4.81;4.34;;;;;;;17.95;49.83;99422.56;;;;-51
2021/11/26 03:27:15;;;;;;;4.86;4.35;;;;;;;17.95;49.85;99421.64;;;;-51
2021/11/26 03:30:15;;;;;;;5.08;4.58;;;;;;;17.94;49.85;99421.75;;;;-52
2021/11/26 03:33:15;;;;;;;5.12;4.62;;;;;;;17.93;49.81;99417.38;;;;-52
2021/11/26 03:36:15;;;;;;;5.03;4.47;;;;;;;17.92;49.78;99413.31;;;;-52
2021/11/26 03:39:15;;;;;;;5.09;4.59;;;;;;;17.91;49.82;99418.44;;;;-53
2021/11/26 03:42:15;;;;;;;4.83;4.43;;;;;;;17.92;49.90;99416.39;;;;-52
2021/11/26 03:45:15;;;;;;;5.07;4.51;;;;;;;17.92;49.85;99411.70;;;;-51
2021/11/26 03:48:15;;;;;;;4.82;4.32;;;;;;;17.91;49.86;99405.87;;;;-51
2021/11/26 03:51:15;;;;;;;4.90;4.44;;;;;;;17.91;49.86;99409.20;;;;-52
2021/11/26 03:54:15;;;;;;;4.95;4.45;;;;;;;17.90;49.84;99410.08;;;;-57
2021/11/26 03:57:15;;;;;;;4.97;4.47;;;;;;;17.89;49.85;99406.77;;;;-58
2021/11/26 04:00:15;;;;;;;4.92;4.39;;;;;;;17.88;49.84;99406.34;;;;-58
2021/11/26 04:03:15;;;;;;;4.97;4.47;;;;;;;17.88;49.83;99401.00;;;;-57
2021/11/26 04:06:15;;;;;;;5.10;4.60;;;;;;;17.87;49.85;99400.86;;;;-58
2021/11/26 04:09:15;;;;;;;4.87;4.35;;;;;;;17.87;49.84;99398.60;;;;-58
2021/11/26 04:12:15;;;;;;;5.14;4.64;;;;;;;17.86;49.79;99394.85;;;;-58
2021/11/26 04:15:15;;;;;;;5.05;4.55;;;;;;;17.86;49.84;99393.08;;;;-52
2021/11/26 04:18:15;;;;;;;5.07;4.57;;;;;;;17.85;49.82;99391.80;;;;-51
2021/11/26 04:21:15;;;;;;;4.85;4.39;;;;;;;17.84;49.77;99387.08;;;;-52
2021/11/26 04:24:15;;;;;;;4.87;4.43;;;;;;;17.84;49.87;99386.44;;;;-56
2021/11/26 04:27:15;;;;;;;4.84;4.37;;;;;;;17.84;49.83;99384.66;;;;-58
2021/11/26 04:30:15;;;;;;;5.01;4.50;;;;;;;17.84;49.81;99379.55;;;;-58
2021/11/26 04:33:15;;;;;;;4.97;4.47;;;;;;;17.83;49.86;99368.55;;;;-59
2021/11/26 04:36:15;;;;;;;4.81;4.31;;;;;;;17.82;49.82;99359.34;;;;-51
2021/11/26 04:39:15;;;;;;;4.99;4.50;;;;;;;17.81;49.81;99356.86;;;;-51
2021/11/26 04:42:15;;;;;;;5.08;4.58;;;;;;;17.81;49.87;99357.50;;;;-59
2021/11/26 04:45:15;;;;;;;4.89;4.41;;;;;;;17.80;49.84;99357.98;;;;-59
2021/11/26 04:48:15;;;;;;;5.26;4.55;;;;;;;17.80;49.87;99355.14;;;;-60
2021/11/26 04:51:15;;;;;;;5.18;4.68;;;;;;;17.80;49.79;99347.53;;;;-60
2021/11/26 04:54:15;;;;;;;4.82;4.32;;;;;;;17.80;49.82;99347.20;;;;-52
2021/11/26 04:57:15;;;;;;;4.58;4.14;;;;;;;17.79;49.83;99345.03;;;;-52
2021/11/26 05:00:15;;;;;;;4.78;4.37;;;;;;;17.79;49.82;99344.47;;;;-51
2021/11/26 05:03:15;;;;;;;5.09;4.59;;;;;;;17.77;49.88;99338.80;;;;-59
2021/11/26 05:06:15;;;;;;;4.63;4.20;;;;;;;17.77;49.82;99334.91;;;;-59
2021/11/26 05:09:15;;;;;;;4.95;4.39;;;;;;;17.76;49.81;99329.33;;;;-59
2021/11/26 05:12:15;;;;;;;4.96;4.47;;;;;;;17.76;49.83;99326.07;;;;-59
2021/11/26 05:15:15;;;;;;;5.07;4.57;;;;;;;17.75;49.80;99323.00;;;;-52
2021/11/26 05:18:15;;;;;;;4.98;4.48;;;;;;;17.73;49.84;99322.36;;;;-52
2021/11/26 05:21:15;;;;;;;5.00;4.50;;;;;;;17.73;49.80;99325.12;;;;-51
2021/11/26 05:24:15;;;;;;;5.00;4.50;;;;;;;17.72;49.78;99314.27;;;;-51
2021/11/26 05:27:15;;;;;;;4.83;4.43;;;;;;;17.72;49.81;99312.31;;;;-57
2021/11/26 05:30:15;;;;;;;5.01;4.51;;;;;;;17.71;49.82;99311.19;;;;-58
2021/11/26 05:33:15;;;;;;;4.85;4.36;;;;;;;17.71;49.78;99311.19;;;;-58
2021/11/26 05:36:15;;;;;;;4.98;4.48;;;;;;;17.71;49.88;99308.05;;;;-57
2021/11/26 05:39:15;;;;;;;4.93;4.42;;;;;;;17.71;49.85;99307.64;;;;-58
2021/11/26 05:42:15;;;;;;;4.89;4.39;;;;;;;17.70;49.83;99303.83;;;;-58
2021/11/26 05:45:15;;;;;;;4.93;4.43;;;;;;;17.69;49.90;99301.80;;;;-58
2021/11/26 05:48:15;;;;;;;4.63;4.23;;;;;;;17.68;49.95;99296.64;;;;-57
2021/11/26 05:51:15;;;;;;;5.05;4.54;;;;;;;17.69;49.87;99293.70;;;;-60
2021/11/26 05:54:15;;;;;;;4.81;4.32;;;;;;;17.71;49.88;99285.52;;;;-59
2021/11/26 05:57:15;;;;;;;5.00;3.84;;;;;;;17.73;50.05;99280.48;;;;-59
2021/11/26 06:00:15;;;;;;;4.67;4.21;;;;;;;17.76;50.00;99280.45;;;;-51
2021/11/26 06:03:15;;;;;;;4.25;3.85;;;;;;;17.77;50.11;99271.78;;;;-51
2021/11/26 06:06:15;;;;;;;5.52;4.01;;;;;;;17.79;50.15;99267.32;;;;-51
2021/11/26 06:09:15;;;;;;;4.25;3.85;;;;;;;17.82;50.25;99266.16;;;;-52
2021/11/26 06:12:15;;;;;;;4.17;3.82;;;;;;;17.85;50.33;99266.11;;;;-57
2021/11/26 06:15:15;;;;;;;4.07;3.69;;;;;;;17.87;50.31;99254.19;;;;-58
2021/11/26 06:18:15;;;;;;;4.19;3.79;;;;;;;17.90;50.39;99258.53;;;;-59
2021/11/26 06:21:15;;;;;;;4.32;3.92;;;;;;;17.91;50.40;99250.67;;;;-60
2021/11/26 06:24:15;;;;;;;3.91;3.61;;;;;;;17.92;50.37;99250.98;;;;-52
2021/11/26 06:27:15;;;;;;;4.01;3.61;;;;;;;17.94;50.38;99250.73;;;;-58
2021/11/26 06:30:15;;;;;;;5.16;3.75;;;;;;;17.95;50.40;99247.30;;;;-58
2021/11/26 06:33:15;;;;;;;4.12;3.72;;;;;;;17.96;50.39;99247.95;;;;-58
2021/11/26 06:36:15;;;;;;;4.10;3.69;;;;;;;17.96;50.36;99247.37;;;;-51
2021/11/26 06:39:15;;;;;;;4.62;3.83;;;;;;;17.98;50.38;99246.16;;;;-51
2021/11/26 06:42:15;;;;;;;4.15;3.75;;;;;;;17.98;50.37;99242.02;;;;-51
2021/11/26 06:45:15;;;;;;;4.33;3.93;;;;;;;18.00;50.41;99245.73;;;;-58
2021/11/26 06:48:15;;;;;;;3.88;3.54;;;;;;;18.00;50.29;99240.23;;;;-58
2021/11/26 06:51:15;;;;;;;4.17;3.77;;;;;;;18.01;50.29;99232.27;;;;-59
2021/11/26 06:54:15;;;;;;;4.35;3.95;;;;;;;18.01;50.33;99231.13;;;;-51
2021/11/26 06:57:15;;;;;;;3.88;3.52;;;;;;;18.01;50.30;99229.19;;;;-51
2021/11/26 07:00:15;;;;;;;4.22;3.82;;;;;;;18.01;50.30;99223.02;;;;-51
2021/11/26 07:03:15;;;;;;;4.15;3.75;;;;;;;18.01;50.24;99218.42;;;;-52
2021/11/26 07:06:15;;;;;;;3.95;3.63;;;;;;;18.02;50.21;99218.58;;;;-51
2021/11/26 07:09:15;;;;;;;4.02;3.63;;;;;;;18.02;50.26;99215.16;;;;-52
2021/11/26 07:12:15;;;;;;;4.85;4.07;;;;;;;18.02;50.27;99210.95;;;;-51
2021/11/26 07:15:15;;;;;;;4.25;3.85;;;;;;;18.02;50.25;99206.50;;;;-58
2021/11/26 07:18:15;;;;;;;4.02;3.62;;;;;;;18.02;50.20;99203.98;;;;-60
2021/11/26 07:21:15;;;;;;;4.33;3.93;;;;;;;18.02;50.20;99195.80;;;;-51
2021/11/26 07:24:15;;;;;;;4.15;3.75;;;;;;;18.01;50.13;99188.41;;;;-52
2021/11/26 07:27:15;;;;;;;4.16;3.76;;;;;;;18.01;50.19;99179.02;;;;-52
2021/11/26 07:30:15;;;;;;;4.14;3.74;;;;;;;18.01;50.17;99179.09;;;;-57
2021/11/26 07:33:15;;;;;;;4.40;3.83;;;;;;;17.98;49.65;99175.80;;;;-57
2021/11/26 07:36:15;;;;;;;14.03;11.11;;;;;;;17.73;45.85;99169.81;;;;-52
2021/11/26 07:39:16;;;;;;;16.16;12.54;;;;;;;17.58;45.09;99167.41;;;;-52
2021/11/26 07:42:15;;;;;;;16.67;13.09;;;;;;;17.44;44.23;99167.48;;;;-52
2021/11/26 07:45:15;;;;;;;18.93;14.13;;;;;;;17.32;43.54;99160.36;;;;-60
2021/11/26 07:48:15;;;;;;;17.49;14.32;;;;;;;17.19;43.21;99156.38;;;;-60
2021/11/26 07:51:15;;;;;;;19.35;14.81;;;;;;;17.09;42.97;99156.02;;;;-60
2021/11/26 07:54:15;;;;;;;20.13;15.77;;;;;;;16.99;42.75;99152.34;;;;-53
2021/11/26 07:57:15;;;;;;;23.13;17.65;;;;;;;16.97;43.55;99146.61;;;;-52
2021/11/26 08:00:15;;;;;;;19.98;15.69;;;;;;;17.07;44.17;99143.32;;;;-52
2021/11/26 08:03:17;;;;;;;19.53;14.01;;;;;;;17.15;44.68;99143.84;;;;-51
2021/11/26 08:06:15;;;;;;;16.43;12.87;;;;;;;17.23;45.55;99142.44;;;;-51
2021/11/26 08:09:15;;;;;;;14.67;11.65;;;;;;;17.30;46.06;99137.53;;;;-59
2021/11/26 08:12:15;;;;;;;12.99;10.57;;;;;;;17.36;46.53;99132.86;;;;-51
2021/11/26 08:15:15;;;;;;;11.73;9.60;;;;;;;17.43;46.70;99127.48;;;;-57
2021/11/26 08:18:15;;;;;;;11.28;9.40;;;;;;;17.49;46.91;99118.86;;;;-51
2021/11/26 08:21:15;;;;;;;11.30;9.03;;;;;;;17.54;46.86;99114.94;;;;-52
2021/11/26 08:24:15;;;;;;;10.77;8.25;;;;;;;17.59;46.97;99108.98;;;;-52
2021/11/26 08:27:15;;;;;;;10.48;7.83;;;;;;;17.64;47.28;99099.89;;;;-52
2021/11/26 08:30:15;;;;;;;9.57;7.18;;;;;;;17.73;47.64;99100.22;;;;-50
2021/11/26 08:33:15;;;;;;;9.88;7.07;;;;;;;17.76;47.47;99094.43;;;;-50
2021/11/26 08:36:15;;;;;;;8.13;7.13;;;;;;;17.78;47.52;99093.92;;;;-50
2021/11/26 08:39:15;;;;;;;8.79;6.46;;;;;;;17.80;47.59;99090.67;;;;-54
2021/11/26 08:42:15;;;;;;;8.53;6.03;;;;;;;17.81;47.66;99093.25;;;;-50
2021/11/26 08:45:15;;;;;;;7.79;5.89;;;;;;;17.82;47.82;99087.00;;;;-48
2021/11/26 08:48:15;;;;;;;6.95;5.85;;;;;;;17.85;47.90;99081.52;;;;-47
2021/11/26 08:51:15;;;;;;;9.51;5.65;;;;;;;17.88;48.01;99079.12;;;;-50
2021/11/26 08:54:15;;;;;;;6.90;5.59;;;;;;;17.89;47.95;99077.02;;;;-53
2021/11/26 08:57:17;;;;;;;6.83;5.49;;;;;;;17.92;47.58;99075.91;;;;-53
2021/11/26 09:00:15;;;;;;;6.53;5.36;;;;;;;17.95;47.52;99070.70;;;;-50
2021/11/26 09:03:15;;;;;;;6.91;5.30;;;;;;;17.99;48.07;99070.25;;;;-51
2021/11/26 09:06:15;;;;;;;6.81;5.11;;;;;;;18.01;48.07;99073.88;;;;-54
2021/11/26 09:09:15;;;;;;;5.81;5.11;;;;;;;18.03;48.13;99075.91;;;;-57
2021/11/26 09:12:15;;;;;;;5.84;5.10;;;;;;;18.05;48.21;99071.17;;;;-52
2021/11/26 09:15:15;;;;;;;5.83;5.07;;;;;;;18.08;48.34;99071.08;;;;-53
2021/11/26 09:18:15;;;;;;;7.63;4.89;;;;;;;18.10;48.37;99071.62;;;;-59
2021/11/26 09:21:15;;;;;;;6.85;4.75;;;;;;;18.13;48.39;99069.48;;;;-59
2021/11/26 09:24:15;;;;;;;6.58;4.97;;;;;;;18.15;48.41;99070.25;;;;-52
2021/11/26 09:27:15;;;;;;;5.64;4.69;;;;;;;18.17;48.43;99067.48;;;;-58
2021/11/26 09:30:15;;;;;;;6.76;4.84;;;;;;;18.19;48.51;99068.43;;;;-57
2021/11/26 09:33:15;;;;;;;7.11;4.56;;;;;;;18.23;48.61;99059.47;;;;-55
2021/11/26 09:36:15;;;;;;;5.28;4.59;;;;;;;18.27;48.72;99058.13;;;;-54
2021/11/26 09:39:15;;;;;;;10.03;4.73;;;;;;;18.35;49.05;99059.83;;;;-57
2021/11/26 09:42:15;;;;;;;6.21;4.53;;;;;;;18.40;49.10;99052.39;;;;-59
2021/11/26 09:45:17;;;;;;;6.58;4.71;;;;;;;18.44;49.21;99049.75;;;;-52
2021/11/26 09:48:15;;;;;;;6.95;4.56;;;;;;;18.49;49.13;99048.80;;;;-58
2021/11/26 09:51:15;;;;;;;5.21;4.45;;;;;;;18.52;48.88;99047.31;;;;-57
2021/11/26 09:54:15;;;;;;;7.33;4.53;;;;;;;18.57;49.11;99044.33;;;;-57
2021/11/26 09:57:15;;;;;;;7.35;4.59;;;;;;;18.67;49.17;99039.80;;;;-50
2021/11/26 10:00:15;;;;;;;7.13;4.37;;;;;;;18.68;49.11;99030.22;;;;-49
2021/11/26 10:03:15;;;;;;;5.01;4.07;;;;;;;18.73;49.24;99028.36;;;;-47
2021/11/26 10:06:15;;;;;;;5.50;4.15;;;;;;;18.76;49.31;99017.77;;;;-53
2021/11/26 10:09:15;;;;;;;4.52;3.89;;;;;;;18.81;49.34;99014.82;;;;-53
2021/11/26 10:12:15;;;;;;;4.35;3.89;;;;;;;18.84;49.22;99009.25;;;;-50
2021/11/26 10:15:15;;;;;;;4.83;4.07;;;;;;;18.87;49.24;99000.94;;;;-50
2021/11/26 10:18:15;;;;;;;4.29;3.89;;;;;;;18.91;49.33;98998.03;;;;-57
2021/11/26 10:21:15;;;;;;;4.52;3.90;;;;;;;18.94;49.34;98985.80;;;;-57
2021/11/26 10:24:15;;;;;;;4.44;3.72;;;;;;;18.98;49.25;98976.41;;;;-57
2021/11/26 10:27:15;;;;;;;4.36;3.86;;;;;;;19.01;49.27;98967.92;;;;-54
2021/11/26 10:30:15;;;;;;;5.09;4.05;;;;;;;19.06;49.34;98971.34;;;;-59
2021/11/26 10:33:16;;;;;;;4.93;3.97;;;;;;;19.09;49.30;98968.21;;;;-52
2021/11/26 10:36:15;;;;;;;4.21;3.81;;;;;;;19.13;49.50;98955.86;;;;-55
2021/11/26 10:39:16;;;;;;;5.51;3.78;;;;;;;19.14;49.35;98949.94;;;;-49
2021/11/26 10:42:15;;;;;;;4.30;3.90;;;;;;;19.18;49.28;98944.68;;;;-48
2021/11/26 10:45:19;;;;;;;4.58;3.68;;;;;;;19.20;49.39;98933.78;;;;-48
2021/11/26 10:48:43;;;;;;;3.90;3.50;;;;;;;19.23;49.43;98924.44;;;;-50
2021/11/26 10:51:32;;;;;;;4.27;3.73;;;;;;;19.25;49.27;98914.67;;;;-58
2021/11/26 10:58:01;;;;;;;5.75;3.97;;;;;;;19.30;49.28;98901.42;;;;-51
2021/11/26 11:01:15;;;;;;;5.03;3.98;;;;;;;19.31;49.19;98897.66;;;;-47
2021/11/26 11:04:15;;;;;;;5.05;3.72;;;;;;;19.33;49.25;98896.81;;;;-58
2021/11/26 11:07:15;;;;;;;7.08;3.57;;;;;;;19.35;49.26;98897.34;;;;-58
2021/11/26 11:10:15;;;;;;;4.69;3.60;;;;;;;19.37;49.22;98889.77;;;;-52
2021/11/26 11:13:15;;;;;;;4.58;3.61;;;;;;;19.37;48.95;98884.17;;;;-49
2021/11/26 11:16:15;;;;;;;6.91;4.49;;;;;;;19.35;47.81;98880.61;;;;-51
2021/11/26 11:19:15;;;;;;;5.92;4.32;;;;;;;19.36;48.08;98875.58;;;;-51
2021/11/26 11:22:14;;;;;;;4.95;4.19;;;;;;;19.37;48.02;98864.91;;;;-51
2021/11/26 11:25:15;;;;;;;4.36;3.82;;;;;;;19.39;48.17;98861.62;;;;-51
2021/11/26 11:28:15;;;;;;;6.16;4.13;;;;;;;19.41;48.26;98856.06;;;;-51
2021/11/26 11:31:15;;;;;;;6.21;3.97;;;;;;;19.45;48.54;98847.95;;;;-48
2021/11/26 11:34:15;;;;;;;5.67;3.83;;;;;;;19.43;48.44;98844.56;;;;-55
2021/11/26 11:37:18;;;;;;;3.97;3.56;;;;;;;19.42;48.51;98839.88;;;;-52
2021/11/26 11:40:15;;;;;;;6.17;3.60;;;;;;;19.43;48.52;98834.59;;;;-53
2021/11/26 11:43:15;;;;;;;4.91;3.49;;;;;;;19.42;48.61;98834.83;;;;-49
2021/11/26 11:46:15;;;;;;;4.79;3.45;;;;;;;19.42;48.67;98831.19;;;;-49
2021/11/26 11:49:15;;;;;;;5.33;3.37;;;;;;;19.43;48.64;98823.88;;;;-50
2021/11/26 11:52:15;;;;;;;5.79;3.57;;;;;;;19.46;48.65;98819.17;;;;-56
2021/11/26 11:55:15;;;;;;;5.40;3.43;;;;;;;19.49;48.67;98816.26;;;;-50
2021/11/26 11:58:15;;;;;;;4.80;3.48;;;;;;;19.51;48.74;98812.64;;;;-52
2021/11/26 12:01:14;;;;;;;5.17;3.49;;;;;;;19.55;48.82;98807.70;;;;-51
2021/11/26 12:04:16;;;;;;;7.04;3.67;;;;;;;19.56;48.80;98798.24;;;;-48
2021/11/26 12:07:15;;;;;;;4.36;3.41;;;;;;;19.58;48.80;98797.63;;;;-51
2021/11/26 12:10:15;;;;;;;4.51;3.64;;;;;;;19.60;48.82;98788.97;;;;-49
2021/11/26 12:13:15;;;;;;;4.71;3.48;;;;;;;19.63;48.75;98783.47;;;;-50
2021/11/26 12:16:15;;;;;;;4.32;3.46;;;;;;;19.64;48.76;98782.88;;;;-51
2021/11/26 12:19:15;;;;;;;3.89;3.42;;;;;;;19.69;48.76;98779.85;;;;-57
2021/11/26 12:22:21;;;;;;;4.49;3.38;;;;;;;19.67;48.62;98771.37;;;;-57
2021/11/26 12:25:14;;;;;;;4.52;3.39;;;;;;;19.65;48.69;98768.33;;;;-57
2021/11/26 12:28:19;;;;;;;5.17;3.37;;;;;;;19.64;48.59;98765.48;;;;-58
2021/11/26 12:31:15;;;;;;;4.09;3.52;;;;;;;19.63;48.69;98762.42;;;;-52
2021/11/26 12:34:15;;;;;;;3.73;3.19;;;;;;;19.63;48.67;98758.86;;;;-51
2021/11/26 12:37:15;;;;;;;3.89;3.33;;;;;;;19.62;48.70;98748.25;;;;-58
2021/11/26 12:40:15;;;;;;;3.36;3.05;;;;;;;19.62;48.61;98741.49;;;;-57
2021/11/26 12:43:15;;;;;;;4.04;3.19;;;;;;;19.62;48.73;98741.80;;;;-58
2021/11/26 12:46:15;;;;;;;4.51;3.04;;;;;;;19.62;48.70;98733.20;;;;-57
2021/11/26 12:51:03;;;;;;;3.75;2.99;;;;;;;19.62;48.63;98725.70;;;;-51
2021/11/26 12:52:15;;;;;;;4.08;2.91;;;;;;;19.62;48.80;98714.28;;;;-57
2021/11/26 12:55:14;;;;;;;3.33;3.03;;;;;;;19.62;48.88;98717.86;;;;-57
2021/11/26 12:58:14;;;;;;;4.75;2.80;;;;;;;19.61;48.67;98714.38;;;;-51
2021/11/26 13:01:15;;;;;;;3.53;3.15;;;;;;;19.61;48.81;98706.34;;;;-57
2021/11/26 13:04:14;;;;;;;3.39;3.09;;;;;;;19.61;48.81;98709.42;;;;-57
2021/11/26 13:07:15;;;;;;;4.43;3.15;;;;;;;19.60;48.83;98708.36;;;;-57
2021/11/26 13:10:17;;;;;;;4.12;3.21;;;;;;;19.60;48.82;98696.92;;;;-51
2021/11/26 13:13:15;;;;;;;3.15;2.85;;;;;;;19.60;48.83;98687.09;;;;-52
2021/11/26 13:16:15;;;;;;;3.45;3.00;;;;;;;19.59;48.80;98682.33;;;;-57
2021/11/26 13:19:18;;;;;;;3.40;3.10;;;;;;;19.59;48.79;98676.64;;;;-52
2021/11/26 13:22:15;;;;;;;3.38;2.97;;;;;;;19.58;48.90;98671.12;;;;-51
2021/11/26 13:25:15;;;;;;;4.39;3.19;;;;;;;19.58;48.84;98664.79;;;;-57
2021/11/26 13:28:14;;;;;;;3.16;2.86;;;;;;;19.58;48.84;98661.63;;;;-57
2021/11/26 13:31:15;;;;;;;3.31;2.81;;;;;;;19.58;48.77;98659.19;;;;-58
2021/11/26 13:34:14;;;;;;;3.49;2.99;;;;;;;19.58;48.85;98651.56;;;;-57
2021/11/26 13:37:15;;;;;;;3.42;2.92;;;;;;;19.58;48.76;98651.53;;;;-57
2021/11/26 13:40:15;;;;;;;3.93;3.04;;;;;;;19.57;48.86;98648.58;;;;-52
2021/11/26 13:43:14;;;;;;;3.34;3.03;;;;;;;19.58;48.91;98640.18;;;;-52
2021/11/26 13:46:15;;;;;;;3.06;2.69;;;;;;;19.57;48.93;98633.61;;;;-57
2021/11/26 13:49:15;;;;;;;2.93;2.63;;;;;;;19.58;48.92;98631.63;;;;-52
2021/11/26 13:52:15;;;;;;;3.85;2.96;;;;;;;19.58;48.93;98625.62;;;;-51
2021/11/26 13:55:17;;;;;;;3.59;2.95;;;;;;;19.58;48.96;98625.45;;;;-51
2021/11/26 13:58:14;;;;;;;3.42;3.12;;;;;;;19.60;48.93;98623.47;;;;-51
2021/11/26 14:01:15;;;;;;;2.99;2.71;;;;;;;19.60;48.86;98609.00;;;;-51
2021/11/26 14:04:15;;;;;;;5.47;3.13;;;;;;;19.62;48.76;98603.61;;;;-52
2021/11/26 14:07:16;;;;;;;4.73;3.16;;;;;;;19.64;49.05;98599.09;;;;-52
2021/11/26 14:10:15;;;;;;;3.38;3.05;;;;;;;19.68;49.28;98594.02;;;;-51
2021/11/26 14:13:14;;;;;;;3.39;3.07;;;;;;;19.71;49.32;98590.80;;;;-51
2021/11/26 14:16:15;;;;;;;5.74;3.29;;;;;;;19.73;49.25;98588.73;;;;-53
2021/11/26 14:19:15;;;;;;;5.45;3.52;;;;;;;19.76;49.18;98590.05;;;;-58
2021/11/26 14:22:15;;;;;;;4.90;3.83;;;;;;;19.77;49.22;98583.27;;;;-59
2021/11/26 14:25:15;;;;;;;5.65;3.99;;;;;;;19.79;49.14;98577.45;;;;-59
2021/11/26 14:28:14;;;;;;;4.62;3.63;;;;;;;19.79;49.18;98577.59;;;;-59
2021/11/26 14:31:15;;;;;;;7.39;3.85;;;;;;;19.83;49.23;98577.09;;;;-50
2021/11/26 14:34:15;;;;;;;4.45;3.92;;;;;;;19.84;49.36;98578.72;;;;-51
2021/11/26 14:37:15;;;;;;;5.79;3.91;;;;;;;19.86;49.21;98572.09;;;;-54
2021/11/26 14:40:15;;;;;;;4.71;3.79;;;;;;;19.89;49.23;98566.56;;;;-58
2021/11/26 14:43:16;;;;;;;5.73;3.91;;;;;;;19.91;49.20;98570.50;;;;-61
2021/11/26 14:46:15;;;;;;;4.82;3.73;;;;;;;19.91;49.23;98565.77;;;;-53
2021/11/26 14:49:16;;;;;;;4.31;3.67;;;;;;;19.93;49.30;98561.07;;;;-59
2021/11/26 14:52:15;;;;;;;8.44;3.73;;;;;;;19.94;49.10;98562.09;;;;-60
2021/11/26 14:55:15;;;;;;;5.71;3.87;;;;;;;19.95;49.18;98561.99;;;;-57
2021/11/26 14:58:15;;;;;;;5.16;3.80;;;;;;;19.97;49.13;98555.39;;;;-58
2021/11/26 15:01:14;;;;;;;5.08;3.79;;;;;;;19.98;49.19;98553.20;;;;-60
2021/11/26 15:04:15;;;;;;;4.64;3.75;;;;;;;20.00;49.15;98551.63;;;;-53
2021/11/26 15:07:15;;;;;;;5.48;3.77;;;;;;;20.00;49.10;98544.38;;;;-51
2021/11/26 15:10:15;;;;;;;5.67;3.90;;;;;;;20.02;49.12;98538.88;;;;-59
2021/11/26 15:13:15;;;;;;;4.52;3.57;;;;;;;20.03;49.23;98533.69;;;;-50
2021/11/26 15:16:15;;;;;;;4.61;3.82;;;;;;;20.02;49.12;98531.24;;;;-48
2021/11/26 15:19:15;;;;;;;9.54;6.36;;;;;;;19.98;47.06;98519.58;;;;-49
2021/11/26 15:22:15;;;;;;;10.16;6.42;;;;;;;19.96;47.49;98517.98;;;;-53
2021/11/26 15:25:15;;;;;;;12.39;6.87;;;;;;;19.95;47.57;98516.63;;;;-48
2021/11/26 15:28:15;;;;;;;10.87;6.69;;;;;;;19.96;47.75;98517.09;;;;-50
2021/11/26 15:31:18;;;;;;;9.97;6.63;;;;;;;19.96;47.84;98512.78;;;;-50
2021/11/26 15:34:14;;;;;;;10.67;6.61;;;;;;;19.96;47.56;98514.67;;;;-49
2021/11/26 15:37:15;;;;;;;9.39;6.67;;;;;;;19.98;47.58;98511.84;;;;-49
2021/11/26 15:40:14;;;;;;;10.53;6.85;;;;;;;19.98;47.38;98506.24;;;;-49
2021/11/26 15:43:15;;;;;;;12.15;6.99;;;;;;;19.98;47.22;98492.89;;;;-51
2021/11/26 15:46:15;;;;;;;10.49;6.17;;;;;;;20.02;47.89;98490.43;;;;-52
2021/11/26 15:49:14;;;;;;;10.57;5.94;;;;;;;20.05;48.10;98489.22;;;;-50
2021/11/26 15:52:15;;;;;;;9.10;5.68;;;;;;;20.07;48.31;98482.91;;;;-57
2021/11/26 15:55:14;;;;;;;9.41;5.50;;;;;;;20.10;48.42;98472.50;;;;-54
2021/11/26 15:58:15;;;;;;;9.07;5.23;;;;;;;20.13;48.78;98474.77;;;;-51
2021/11/26 16:01:15;;;;;;;8.93;5.52;;;;;;;20.15;48.98;98474.13;;;;-50
2021/11/26 16:04:15;;;;;;;6.99;4.98;;;;;;;20.16;49.12;98467.28;;;;-51
2021/11/26 16:07:15;;;;;;;6.60;4.85;;;;;;;20.18;49.16;98468.45;;;;-48
2021/11/26 16:10:15;;;;;;;8.09;4.92;;;;;;;20.16;48.95;98464.69;;;;-54
2021/11/26 16:13:14;;;;;;;7.59;5.00;;;;;;;20.17;49.08;98471.57;;;;-51
2021/11/26 16:16:15;;;;;;;7.06;4.87;;;;;;;20.19;49.40;98459.86;;;;-45
2021/11/26 16:19:14;;;;;;;7.03;5.01;;;;;;;20.19;49.44;98456.55;;;;-50
2021/11/26 16:22:15;;;;;;;6.98;4.97;;;;;;;20.18;49.00;98449.08;;;;-57
2021/11/26 16:25:15;;;;;;;8.17;4.95;;;;;;;20.16;48.93;98456.37;;;;-57
2021/11/26 16:28:15;;;;;;;6.83;4.88;;;;;;;20.17;49.02;98448.55;;;;-53
2021/11/26 16:31:22;;;;;;;6.88;4.55;;;;;;;20.18;49.10;98447.31;;;;-53
2021/11/26 16:34:25;;;;;;;6.77;4.99;;;;;;;20.21;49.35;98438.91;;;;-60
2021/11/26 16:37:17;;;;;;;8.03;4.86;;;;;;;20.21;49.43;98435.59;;;;-60
2021/11/26 16:40:15;;;;;;;6.75;4.37;;;;;;;20.23;49.44;98440.41;;;;-54
2021/11/26 16:43:14;;;;;;;6.40;4.55;;;;;;;20.25;49.44;98436.03;;;;-55
2021/11/26 16:46:14;;;;;;;6.43;4.39;;;;;;;20.28;49.65;98428.88;;;;-54
2021/11/26 16:49:15;;;;;;;5.99;4.42;;;;;;;20.30;49.70;98426.70;;;;-55
2021/11/26 16:52:14;;;;;;;6.88;4.83;;;;;;;20.32;49.52;98424.84;;;;-52
2021/11/26 16:55:15;;;;;;;7.22;4.90;;;;;;;20.35;49.37;98417.28;;;;-56
2021/11/26 16:58:15;;;;;;;5.61;4.37;;;;;;;20.37;49.39;98413.08;;;;-53
2021/11/26 17:01:14;;;;;;;6.21;4.43;;;;;;;20.39;49.49;98403.98;;;;-56
2021/11/26 17:04:15;;;;;;;6.23;4.27;;;;;;;20.40;49.44;98400.29;;;;-56